map of TOP home
TOP - Airport
Location
City:  Topeka, Kansas, United States
Name:Philip Billard Municipal Airport
ICAO:KTOP
IATA:TOP
FAA LID:TOP

Details
Type:Airport (Airfield)
Use:Public/Civil
Latitude:3904'07"N (39.068667)
Longitude:9537'21"W (-95.622499)
Datum:WGS 1984
Elevation:881 ft (269 m)
Variation:2.39E (WMM2015 magnetic declination)
-0.10 annual change
Runways:3
Longest:5099 × 100 ft (1554 × 30.5 m), paved

Time
Time Zone:UTC-6 (DST-5)
Local Time:

Weather
METAR:KTOP 250453Z AUTO 24004KT 10SM CLR 00/M02 A2991 RMK AO2 SLP136 T00001017
TAF:KTOP 250525Z 2506/2606 25006KT P6SM SKC
FM252100 20008KT P6SM SCT100

Related Locations
Nearby:
Farthest:MQZ: 10705 mi / 17227 km
Margaret River [Margaret River Airport], WA, AU

Find:

   beyond  
but within

Other Information
Maps:
NOTAMs:
Links:
Sources:

  
flag of United States
flag of Kansas
  

Airport Diagram

Airport diagram for TOP

Airport diagram PDF

Sectional Chart

Flight Planning
at skyvector.com

Satellite Image

Google Maps Satellite view

 

Copyright © 2004-2018 Karl L. Swartz. All rights reserved.
The Great Circle Mapper name and logo are trademarks of the Great Circle Mapper.
All other trademarks mentioned herein belong to their respective owners.
Please see credits for attibutions and further copyright information.

  Follow gcmap on Facebook Follow gcmap on Twitter Follow gcmap on Google+ GCmap on LinkedIn

hCard Microformat

Geo Microformat